Terminal Aerodrome Forecast
Issued by NWS

Home | Current Version | Previous Version | Text Only | Print | Product List | Glossary On
Versions: 1 2 3 4 5 6 7 8 9 10 11 12 13 14 15 16 17 18 19 20 21 22 23 24 25 26
000
FTUS45 KBYZ 050537
TAFLVM
TAF
KLVM 050537Z 0506/0606 10009KT P6SM FEW120 SCT200
     FM051200 07013G25KT P6SM VCSH SCT020 BKN040
     FM052000 09011KT P6SM -SHRA BKN025=

USA.gov is the U.S. government's official web portal to all federal, state and local government web resources and services.